BGBW

Details ICAO BGBW (UAK)
Name Narsarsuaq
Region Greenland
Timezone America/Godthab (UTC-2.0)
Plans Departing 276
Arriving 376
Stats Elevation 112 ft / 34 m (AMSL)
Location 61.160516° -45.425976°
Runways 1
Magnetic Variation 22.747° W
Sunrise 2018-06-24 05:25:21 UTC / 2018-06-24 03:25:21 Local
Sunset 2018-06-25 00:45:20 UTC / 2018-06-24 22:45:20 Local
Advertisement - Login to hide

Runways

ID Width Length Bearing (true) Bearing (mag) Surface Threshold Offset Overrun Length
07 148 ft / 45 m 5,921 ft / 1,805 m 40.57° 63.32° Concrete 0 ft / 0 m 0 ft / 0 m
25 148 ft / 45 m 5,921 ft / 1,805 m 220.58° 243.33° Concrete 0 ft / 0 m 279 ft / 85 m

Map

Weather


0- 5 10 15 20 25 30 35+ Temperature / ° C

Clouds and Precipitation
Forecast for 2018-06-25 00:00 UTC. Updated 38 minutes ago

Ground ~20,000 ft ~40,000 ft Winds

METAR

BGBW 242150Z 23010KT 9999 -DZRA FEW008 BKN014 BKN023 05/02 Q0999

TAF

Not found

Frequencies

Tower 119.10 MHz AFIS
Warning: Do not use this data for real-world aviation or navigation. No guarantee of current accuracy is given.